Depesza METAR lotniska Warszawa-Okęcie

METAR = EPWA 250900Z 11006KT 080V140 9999 FEW030 18/11 Q1015 NOSIG

STACJA......... EPWA - Warszawa-Okęcie (WAW)
POMIAR......... Mon May 25, 11:00 CEST
TERAZ.......... Mon May 25, 11:10 CEST
CZAS........... 10 min temu
WIATR.......... wschodni południowo-wschodni (ESE) z prędkością 11 km/h
WIDZIALNOŚĆ.... powyżej 10 kilometrów
CHMURY......... zachmurzenie niewielkie (1/8-2/8)
TEMPERATURA.... 18°C
T.PUNKTU ROSY.. 11°C
WILGOTNOŚĆ..... 64%
CIŚNIENIE...... 1015 hPa
PROGNOZA....... bez nagłych zmian w ciągu 2h

Depesza METAR lotniska Kraków-Balice

METAR = EPKK 250900Z 06008KT 030V100 9999 -SHRA FEW015TCU BKN026 14/12 Q1013

STACJA......... EPKK - Kraków-Balice (KRK)
POMIAR......... Mon May 25, 11:00 CEST
TERAZ.......... Mon May 25, 11:10 CEST
CZAS........... 10 min temu
WIATR.......... wschodni północno-wschodni (ENE) z prędkością 15 km/h
WIDZIALNOŚĆ.... powyżej 10 kilometrów
WARUNKI........ słaby: deszcz opad przelotny 
CHMURY......... zachmurzenie średnie (5/8-7/8)
TEMPERATURA.... 14°C
T.PUNKTU ROSY.. 12°C
WILGOTNOŚĆ..... 88%
CIŚNIENIE...... 1013 hPa

Depesza METAR lotniska Łódź-Lublinek

METAR = EPLL 250830Z 09004KT 030V150 9999 SCT036 19/09 Q1014

STACJA......... EPLL - Łódź-Lublinek (LCJ)
POMIAR......... Mon May 25, 10:30 CEST
TERAZ.......... Mon May 25, 11:10 CEST
CZAS........... 40 min temu
WIATR.......... wschodni (E) z prędkością 7 km/h
WIDZIALNOŚĆ.... powyżej 10 kilometrów
CHMURY......... zachmurzenie małe (3/8-4/8)
TEMPERATURA.... 19°C
T.PUNKTU ROSY.. 9°C
WILGOTNOŚĆ..... 52%
CIŚNIENIE...... 1014 hPa

Depesza METAR lotniska Wrocław-Strachowice

METAR = EPWR 250900Z 17004KT 120V270 9999 FEW033 20/11 Q1015

STACJA......... EPWR - Wrocław-Strachowice (WRO)
POMIAR......... Mon May 25, 11:00 CEST
TERAZ.......... Mon May 25, 11:10 CEST
CZAS........... 10 min temu
WIATR.......... południowy (S) z prędkością 7 km/h
WIDZIALNOŚĆ.... powyżej 10 kilometrów
CHMURY......... zachmurzenie niewielkie (1/8-2/8)
TEMPERATURA.... 20°C
T.PUNKTU ROSY.. 11°C
WILGOTNOŚĆ..... 56%
CIŚNIENIE...... 1015 hPa

Depesza METAR lotniska Katowice-Pyrzowice

METAR = EPKT 250900Z 06009KT 030V100 9999 SCT021 16/11 Q1014

STACJA......... EPKT - Katowice-Pyrzowice (KTW)
POMIAR......... Mon May 25, 11:00 CEST
TERAZ.......... Mon May 25, 11:10 CEST
CZAS........... 10 min temu
WIATR.......... wschodni północno-wschodni (ENE) z prędkością 17 km/h
WIDZIALNOŚĆ.... powyżej 10 kilometrów
CHMURY......... zachmurzenie małe (3/8-4/8)
TEMPERATURA.... 16°C
T.PUNKTU ROSY.. 11°C
WILGOTNOŚĆ..... 72%
CIŚNIENIE...... 1014 hPa

Depesza METAR lotniska Gdańsk

METAR = EPGD 250830Z 20006KT 100V270 CAVOK 19/04 Q1014

STACJA......... EPGD - Gdańsk im. Lecha Wałęsy (GDN)
POMIAR......... Mon May 25, 10:30 CEST
TERAZ.......... Mon May 25, 11:10 CEST
CZAS........... 40 min temu
WIATR.......... południowo południowo-zachodni  (SSW) z prędkością 11 km/h
WIDZIALNOŚĆ.... powyżej 10 kilometrów
CHMURY......... bezchmurne niebo
TEMPERATURA.... 19°C
T.PUNKTU ROSY.. 4°C
WILGOTNOŚĆ..... 37%
CIŚNIENIE...... 1014 hPa

Depesza METAR lotniska Poznań-Ławica

METAR = EPPO 250900Z 15006KT 9999 SCT046 20/07 Q1013

STACJA......... EPPO - Poznań-Ławica (POZ)
POMIAR......... Mon May 25, 11:00 CEST
TERAZ.......... Mon May 25, 11:10 CEST
CZAS........... 10 min temu
WIATR.......... południowo południowo-wschodni (SSE) z prędkością 11 km/h
WIDZIALNOŚĆ.... powyżej 10 kilometrów
CHMURY......... zachmurzenie małe (3/8-4/8)
TEMPERATURA.... 20°C
T.PUNKTU ROSY.. 7°C
WILGOTNOŚĆ..... 43%
CIŚNIENIE...... 1013 hPa

Depesza METAR lotniska Rzeszów-Jasionka

METAR = EPRZ 250900Z 10006KT 9999 OVC008 14/13 Q1013

STACJA......... EPRZ - Rzeszów-Jasionka (RZE)
POMIAR......... Mon May 25, 11:00 CEST
TERAZ.......... Mon May 25, 11:10 CEST
CZAS........... 10 min temu
WIATR.......... wschodni (E) z prędkością 11 km/h
WIDZIALNOŚĆ.... powyżej 10 kilometrów
CHMURY......... zachmurzenie całkowite (8/8)
TEMPERATURA.... 14°C
T.PUNKTU ROSY.. 13°C
WILGOTNOŚĆ..... 94%
CIŚNIENIE...... 1013 hPa

Depesza METAR lotniska Szczecin-Goleniów

METAR = EPSC 250830Z 22003KT CAVOK 15/08 Q1013

STACJA......... EPSC - Szczecin-Goleniów (SZZ)
POMIAR......... Mon May 25, 10:30 CEST
TERAZ.......... Mon May 25, 11:10 CEST
CZAS........... 40 min temu
WIATR.......... południowo-zachodni (SW) z prędkością 6 km/h
WIDZIALNOŚĆ.... powyżej 10 kilometrów
CHMURY......... bezchmurne niebo
TEMPERATURA.... 15°C
T.PUNKTU ROSY.. 8°C
WILGOTNOŚĆ..... 63%
CIŚNIENIE...... 1013 hPa

Depesza METAR lotniska Lublin-Świdnik

METAR = EPLB 250830Z 10010KT 9999 BKN021 OVC027 15/12  Q1015 =

STACJA......... EPLB - Lublin-Świdnik (LUZ)
POMIAR......... Mon May 25, 10:30 CEST
TERAZ.......... Mon May 25, 11:10 CEST
CZAS........... 40 min temu
WIATR.......... wschodni (E) z prędkością 19 km/h
WIDZIALNOŚĆ.... powyżej 10 kilometrów
CHMURY......... zachmurzenie całkowite (8/8)
TEMPERATURA.... 15°C
T.PUNKTU ROSY.. 12°C
WILGOTNOŚĆ..... 82%

Sprawdź też: prognoza pogody dla miast w Polsce!